Time;durP1;ratioP1;P1;durP2;ratioP2;P2;SDS_P1;SDS_P2;PMS_P1;PMS_P2;Temp;Humidity;BMP_temperature;BMP_pressure;BME280_temperature;BME280_humidity;BME280_pressure;Samples;Min_cycle;Max_cycle;Signal;HPM_P1;HPM_P2
2022/12/20 00:08:22;;;;;;;0.93;0.73;;;;;;;16.16;69.00;100876.69;20534391;28;20054;-88
2022/12/20 00:18:24;;;;;;;0.98;0.68;;;;;;;16.26;68.97;100901.81;20557302;28;20055;-88
2022/12/20 00:28:25;;;;;;;0.70;0.70;;;;;;;16.27;69.01;100898.13;20549436;28;20058;-89
2022/12/20 00:38:27;;;;;;;0.93;0.68;;;;;;;16.26;69.06;100901.81;20516753;28;20051;-88
2022/12/20 00:48:30;;;;;;;0.75;0.60;;;;;;;16.17;68.99;100867.66;20532025;28;21011;-88
2022/12/20 00:58:33;;;;;;;0.60;0.60;;;;;;;16.25;68.88;100862.50;20560529;28;20059;-88
2022/12/20 01:08:35;;;;;;;0.93;0.73;;;;;;;16.26;68.93;100860.66;20546379;28;20050;-88
2022/12/20 01:18:37;;;;;;;0.80;0.80;;;;;;;16.07;69.42;100846.91;20602419;28;20082;-89
2022/12/20 01:28:40;;;;;;;1.10;0.65;;;;;;;16.25;68.98;100865.19;20641820;28;20054;-89
2022/12/20 01:38:42;;;;;;;0.47;0.45;;;;;;;16.24;68.98;100853.59;20624368;28;20643;-89
2022/12/20 01:48:48;;;;;;;1.00;0.60;;;;;;;16.24;68.98;100840.16;20640633;28;20101;-89
2022/12/20 01:58:52;;;;;;;0.50;0.40;;;;;;;16.25;69.06;100827.56;20606545;28;20198;-88
2022/12/20 02:08:58;;;;;;;0.60;0.50;;;;;;;16.16;68.89;100831.88;20621801;28;20499;-88
2022/12/20 02:19:26;;;;;;;0.80;0.50;;;;;;;15.62;68.77;100736.94;20619322;28;20089;-89
2022/12/20 02:29:37;;;;;;;0.50;0.50;;;;;;;16.17;68.89;100819.28;20672953;28;20584;-89
2022/12/20 02:39:39;;;;;;;0.60;0.50;;;;;;;16.19;69.00;100820.03;20667932;28;20057;-89
2022/12/20 02:49:41;;;;;;;0.50;0.50;;;;;;;16.23;68.95;100819.66;20594478;28;20053;-89
2022/12/20 03:00:06;;;;;;;1.02;0.60;;;;;;;16.24;68.82;100817.81;20635337;28;20526;-89
2022/12/20 03:10:09;;;;;;;0.60;0.43;;;;;;;16.24;68.89;100807.94;20582235;28;20589;-89
2022/12/20 03:20:11;;;;;;;0.65;0.60;;;;;;;16.24;68.97;100788.25;20616843;28;20050;-88
2022/12/20 03:30:13;;;;;;;0.60;0.60;;;;;;;16.08;68.99;100754.63;20599934;28;20042;-89
2022/12/20 03:40:15;;;;;;;0.80;0.50;;;;;;;16.22;68.90;100780.34;20631345;28;20046;-88
2022/12/20 03:50:18;;;;;;;0.57;0.55;;;;;;;16.22;69.05;100774.97;20598313;28;20046;-88
2022/12/20 04:00:20;;;;;;;0.77;0.77;;;;;;;16.24;68.93;100804.38;20614005;28;20108;-88
2022/12/20 04:10:25;;;;;;;0.80;0.45;;;;;;;16.12;68.95;100776.69;20633962;28;20623;-89
2022/12/20 04:20:28;;;;;;;0.55;0.47;;;;;;;16.13;69.13;100770.38;20693822;28;20046;-88
2022/12/20 04:30:44;;;;;;;0.52;0.50;;;;;;;16.23;69.00;100771.31;20628502;28;20129;-88
2022/12/20 04:40:53;;;;;;;0.63;0.60;;;;;;;16.22;69.05;100761.53;20613822;28;20046;-88
2022/12/20 04:50:55;;;;;;;0.73;0.65;;;;;;;16.09;68.88;100729.47;20627836;28;20050;-88
2022/12/20 05:00:58;;;;;;;0.40;0.40;;;;;;;16.24;68.76;100745.28;20611684;28;20112;-89
2022/12/20 05:11:05;;;;;;;1.00;0.50;;;;;;;16.09;68.98;100721.41;20583550;28;20049;-88
2022/12/20 05:31:27;;;;;;;0.70;0.50;;;;;;;16.22;69.06;100732.00;20582766;28;20410;-88
2022/12/20 05:41:29;;;;;;;0.47;0.40;;;;;;;16.22;69.09;100709.63;20623059;28;20048;-89
2022/12/20 05:51:32;;;;;;;0.40;0.40;;;;;;;16.22;68.92;100689.03;20623240;28;20081;-88
2022/12/20 06:01:49;;;;;;;0.40;0.40;;;;;;;16.23;69.04;100684.47;20679002;28;20049;-89
2022/12/20 06:11:52;;;;;;;0.47;0.38;;;;;;;15.90;69.00;100643.38;20706925;28;20065;-89
2022/12/20 06:21:55;;;;;;;0.50;0.50;;;;;;;15.85;68.95;100637.53;20637342;28;20133;-88
2022/12/20 06:32:06;;;;;;;0.40;0.40;;;;;;;16.01;68.91;100656.78;20586822;28;20133;-88
2022/12/20 06:42:08;;;;;;;0.47;0.45;;;;;;;16.22;68.85;100701.59;20571602;28;20419;-88
2022/12/20 06:52:12;;;;;;;0.75;0.50;;;;;;;16.22;69.13;100702.44;20575146;28;20054;-88
2022/12/20 07:02:20;;;;;;;0.60;0.50;;;;;;;16.23;69.19;100689.84;20550154;28;20385;-88
2022/12/20 07:12:22;;;;;;;0.88;0.50;;;;;;;16.23;69.02;100687.16;20571778;28;20046;-89
2022/12/20 07:22:23;;;;;;;0.47;0.32;;;;;;;16.23;68.93;100679.97;20564995;28;20129;-89
2022/12/20 07:32:26;;;;;;;0.30;0.30;;;;;;;16.22;69.12;100683.66;20525726;28;20050;-88
2022/12/20 07:42:27;;;;;;;0.32;0.32;;;;;;;15.90;68.88;100621.91;20561448;28;20511;-89
2022/12/20 07:52:41;;;;;;;0.20;0.20;;;;;;;16.22;68.88;100688.16;20531600;28;20058;-89
2022/12/20 08:02:47;;;;;;;0.40;0.40;;;;;;;16.23;68.87;100687.16;20584632;28;20101;-93
2022/12/20 08:12:49;;;;;;;0.30;0.30;;;;;;;16.01;69.20;100648.72;20560241;28;20523;-86
2022/12/20 08:22:50;;;;;;;0.40;0.40;;;;;;;16.18;69.19;100670.59;20539980;28;20415;-87
2022/12/20 08:32:52;;;;;;;0.38;0.30;;;;;;;16.29;69.20;100667.00;20587069;28;20058;-85
2022/12/20 08:42:53;;;;;;;0.40;0.40;;;;;;;16.30;69.44;100666.84;20577799;28;20407;-86
2022/12/20 08:52:55;;;;;;;0.40;0.40;;;;;;;16.22;69.51;100646.03;20577280;28;20059;-86
2022/12/20 09:02:56;;;;;;;0.30;0.30;;;;;;;16.32;69.45;100667.56;20562623;28;20093;-87
2022/12/20 09:12:58;;;;;;;0.63;0.40;;;;;;;13.72;69.49;100256.47;20730669;23;20106;-93
2022/12/20 09:23:00;;;;;;;0.32;0.32;;;;;;;16.32;69.72;100651.44;20532032;28;20061;-84
2022/12/20 09:33:01;;;;;;;0.30;0.30;;;;;;;16.33;69.76;100638.88;20501643;28;20083;-85
2022/12/20 09:43:13;;;;;;;0.40;0.40;;;;;;;16.33;69.78;100641.56;20524217;28;20069;-84
2022/12/20 09:53:40;;;;;;;0.30;0.30;;;;;;;16.21;69.82;100627.34;20508777;28;20435;-87
2022/12/20 10:03:42;;;;;;;0.22;0.22;;;;;;;16.00;69.88;100597.81;20578547;28;20446;-84
2022/12/20 10:13:57;;;;;;;0.98;0.30;;;;;;;16.23;69.82;100614.66;20599285;28;20053;-84
2022/12/20 10:24:12;;;;;;;0.30;0.30;;;;;;;16.34;69.78;100628.00;20558923;28;20097;-87
2022/12/20 10:34:14;;;;;;;0.30;0.30;;;;;;;16.34;69.81;100601.13;20489527;28;20109;-83
2022/12/20 10:44:27;;;;;;;0.20;0.20;;;;;;;16.26;69.85;100590.19;20494511;28;20043;-84
2022/12/20 10:54:32;;;;;;;0.40;0.40;;;;;;;16.36;69.94;100592.94;20542234;28;21559;-85
2022/12/20 11:04:37;;;;;;;0.20;0.20;;;;;;;16.35;70.00;100586.75;20585739;28;20511;-84
2022/12/20 11:14:40;;;;;;;0.32;0.30;;;;;;;16.04;70.02;100535.69;20571909;28;20042;-84
2022/12/20 11:25:13;;;;;;;0.60;0.30;;;;;;;16.34;70.05;100595.75;20583713;28;20089;-87
2022/12/20 11:35:29;;;;;;;0.30;0.30;;;;;;;16.03;69.98;100530.44;20574500;28;20050;-86
2022/12/20 11:45:37;;;;;;;0.40;0.30;;;;;;;16.35;70.12;100591.25;20491424;28;20507;-86
2022/12/20 11:55:40;;;;;;;0.43;0.30;;;;;;;16.27;70.00;100573.09;20497916;28;20514;-85
2022/12/20 12:05:55;;;;;;;0.30;0.30;;;;;;;16.35;70.10;100586.75;20491002;28;20480;-87
2022/12/20 12:16:17;;;;;;;0.47;0.47;;;;;;;16.12;70.08;100534.16;20545780;28;20133;-86
2022/12/20 12:26:33;;;;;;;1.52;0.40;;;;;;;16.18;69.96;100547.06;20559049;28;20109;-86
2022/12/20 12:36:53;;;;;;;0.20;0.20;;;;;;;16.10;70.12;100526.22;20576920;28;20050;-87
2022/12/20 12:46:58;;;;;;;0.55;0.28;;;;;;;16.20;70.13;100537.88;20577968;28;20051;-85
2022/12/20 12:57:02;;;;;;;0.20;0.20;;;;;;;16.36;70.23;100560.72;20542690;28;20519;-86
2022/12/20 13:07:32;;;;;;;0.30;0.30;;;;;;;16.36;70.21;100556.19;20530642;28;20062;-85
2022/12/20 13:17:48;;;;;;;0.30;0.22;;;;;;;16.36;70.12;100545.47;20566872;28;20069;-86
2022/12/20 13:27:50;;;;;;;0.30;0.30;;;;;;;16.13;70.16;100515.25;20551826;28;20051;-86
2022/12/20 13:38:06;;;;;;;0.20;0.20;;;;;;;16.36;70.23;100558.88;20569598;28;20055;-83
2022/12/20 13:48:14;;;;;;;0.30;0.30;;;;;;;16.37;70.11;100557.03;20555598;28;20482;-87
2022/12/20 13:58:21;;;;;;;0.68;0.50;;;;;;;16.35;70.33;100559.88;20517327;28;20121;-86
2022/12/20 14:08:26;;;;;;;0.20;0.20;;;;;;;16.36;70.39;100549.97;20574686;28;20047;-87
2022/12/20 14:18:27;;;;;;;0.30;0.30;;;;;;;15.95;70.46;100486.31;20552310;28;20055;-87
2022/12/20 14:28:34;;;;;;;0.25;0.20;;;;;;;16.35;70.31;100557.19;20591192;28;20454;-87
2022/12/20 14:38:37;;;;;;;0.20;0.20;;;;;;;16.28;70.38;100545.25;20491693;28;21196;-87
2022/12/20 14:48:39;;;;;;;0.28;0.28;;;;;;;16.36;70.43;100556.19;20491103;28;20055;-88
2022/12/20 14:58:41;;;;;;;0.30;0.30;;;;;;;16.36;70.33;100558.88;20482115;28;20078;-87
2022/12/20 15:08:42;;;;;;;0.40;0.40;;;;;;;16.36;70.38;100552.66;20498686;28;20109;-88
2022/12/20 15:18:45;;;;;;;0.20;0.20;;;;;;;16.36;70.44;100550.84;20567733;28;20137;-87
2022/12/20 15:28:46;;;;;;;0.38;0.30;;;;;;;16.35;70.41;100548.25;20519312;28;20054;-88
2022/12/20 15:38:49;;;;;;;0.13;0.13;;;;;;;16.36;70.51;100539.22;20495610;28;20573;-87
2022/12/20 15:49:16;;;;;;;0.40;0.20;;;;;;;16.35;70.41;100538.38;20519565;28;20066;-87
2022/12/20 15:59:18;;;;;;;0.30;0.30;;;;;;;16.36;70.49;100550.84;20508821;28;20419;-89
2022/12/20 16:09:39;;;;;;;0.20;0.20;;;;;;;16.25;70.39;100532.09;20516692;28;20050;-87
2022/12/20 16:19:42;;;;;;;0.10;0.10;;;;;;;16.11;70.43;100502.91;20510435;28;20701;-87
2022/12/20 16:29:44;;;;;;;0.20;0.20;;;;;;;16.29;70.49;100538.91;20536762;28;20063;-84
2022/12/20 16:39:46;;;;;;;0.30;0.30;;;;;;;16.37;70.78;100547.16;20519975;28;20059;-84
2022/12/20 16:49:47;;;;;;;0.22;0.20;;;;;;;16.35;70.69;100550.94;20508834;28;20086;-85
2022/12/20 16:59:53;;;;;;;0.20;0.20;;;;;;;16.36;70.63;100556.19;20571216;28;20046;-85
2022/12/20 17:09:55;;;;;;;0.55;0.30;;;;;;;16.36;70.62;100566.94;20574071;28;20137;-84
2022/12/20 17:20:13;;;;;;;0.38;0.30;;;;;;;16.37;70.82;100568.66;20516239;28;20787;-86
2022/12/20 17:30:14;;;;;;;0.50;0.30;;;;;;;16.30;70.89;100562.09;20505599;28;20101;-85
2022/12/20 17:40:17;;;;;;;1.23;0.40;;;;;;;16.03;70.92;100520.56;20523763;28;20113;-88
2022/12/20 17:50:19;;;;;;;0.40;0.30;;;;;;;16.08;70.86;100522.81;20487104;28;20445;-86
2022/12/20 18:00:29;;;;;;;1.27;0.40;;;;;;;16.30;70.96;100562.09;20571873;28;21065;-88
2022/12/20 18:10:39;;;;;;;0.73;0.50;;;;;;;16.38;71.11;100573.03;20510994;28;20059;-86
2022/12/20 18:20:41;;;;;;;1.13;0.65;;;;;;;16.38;71.01;100564.13;20574141;28;20121;-91
2022/12/20 18:30:43;;;;;;;1.33;0.70;;;;;;;16.39;71.39;100565.81;20603826;28;20058;-88
2022/12/20 18:40:44;;;;;;;0.90;0.50;;;;;;;16.37;71.47;100565.97;20601700;28;20049;-86
2022/12/20 18:50:46;;;;;;;2.05;0.52;;;;;;;16.38;71.48;100564.13;20599251;28;20054;-85
2022/12/20 19:00:51;;;;;;;2.30;0.50;;;;;;;16.35;71.47;100556.31;20596525;28;20501;-86
2022/12/20 19:10:52;;;;;;;;;;;;;;;16.34;71.64;100547.41;20586216;28;20570;-85
2022/12/20 19:20:54;;;;;;;0.90;0.50;;;;;;;16.33;71.80;100551.06;20571929;28;20366;-85
2022/12/20 19:30:56;;;;;;;1.23;0.60;;;;;;;16.32;71.76;100553.91;20620905;28;20503;-86
2022/12/20 19:40:58;;;;;;;0.73;0.43;;;;;;;16.31;71.79;100566.47;20584350;28;20046;-85
2022/12/20 19:51:10;;;;;;;0.82;0.43;;;;;;;16.31;71.86;100566.47;20571376;28;20070;-85
2022/12/20 20:01:12;;;;;;;0.73;0.40;;;;;;;16.13;71.81;100542.09;20542675;28;20105;-86
2022/12/20 20:11:16;;;;;;;2.00;0.63;;;;;;;16.31;71.86;100571.00;20580907;28;20558;-86
2022/12/20 20:21:21;;;;;;;1.75;0.60;;;;;;;16.30;71.83;100578.19;20552975;28;20535;-86
2022/12/20 20:31:23;;;;;;;0.80;0.50;;;;;;;16.30;71.79;100586.25;20542416;28;20058;-85
2022/12/20 20:41:24;;;;;;;1.38;0.57;;;;;;;16.30;71.89;100588.13;20578948;28;20047;-88
2022/12/20 20:51:26;;;;;;;0.50;0.40;;;;;;;15.91;71.79;100532.38;20570858;28;20058;-88
2022/12/20 21:01:27;;;;;;;1.27;0.57;;;;;;;16.29;71.82;100579.19;20497853;28;20055;-88
2022/12/20 21:11:29;;;;;;;1.20;0.70;;;;;;;16.29;71.81;100595.31;20588986;28;20410;-87
2022/12/20 21:21:30;;;;;;;0.52;0.50;;;;;;;16.17;71.69;100570.38;20619328;28;20462;-88
2022/12/20 21:31:32;;;;;;;1.98;0.73;;;;;;;16.07;71.88;100562.25;20634007;28;20057;-88
2022/12/20 21:41:34;;;;;;;1.23;0.60;;;;;;;16.28;71.97;100579.34;20605997;28;20105;-87
2022/12/20 21:51:35;;;;;;;1.30;0.50;;;;;;;16.29;71.94;100597.16;20574763;28;20051;-88
2022/12/20 22:01:37;;;;;;;2.40;0.60;;;;;;;16.28;71.81;100603.50;20576383;28;20109;-84
2022/12/20 22:11:39;;;;;;;1.15;0.63;;;;;;;16.06;71.91;100565.94;20578898;28;20054;-86
2022/12/20 22:21:40;;;;;;;2.10;0.60;;;;;;;16.27;71.97;100610.72;20585365;28;20046;-86
2022/12/20 22:31:42;;;;;;;1.00;0.70;;;;;;;16.27;71.84;100621.44;20590871;28;20055;-86
2022/12/20 22:41:43;;;;;;;1.40;0.68;;;;;;;16.27;72.05;100613.41;20526410;28;20058;-86
2022/12/20 22:51:45;;;;;;;2.33;1.08;;;;;;;16.16;71.96;100608.09;20561344;28;20557;-86
2022/12/20 23:02:03;;;;;;;1.40;0.50;;;;;;;16.27;71.81;100616.06;20581482;28;20061;-87
2022/12/20 23:22:42;;;;;;;1.23;0.70;;;;;;;16.26;72.10;100622.44;20581874;28;20142;-88
2022/12/20 23:32:43;;;;;;;1.25;0.60;;;;;;;16.26;71.86;100627.81;20575210;28;20507;-88
2022/12/20 23:42:46;;;;;;;0.93;0.47;;;;;;;16.26;72.13;100635.03;20578385;28;20057;-88
2022/12/20 23:52:47;;;;;;;1.50;0.60;;;;;;;16.25;71.84;100634.16;20577015;28;20086;-88
